createdAt,value
2018-11-11T00:01:50.680Z,1.60
2018-11-11T00:04:20.724Z,2.65
2018-11-11T00:06:49.097Z,1.70
2018-11-11T00:09:17.431Z,2.02
2018-11-11T00:11:45.925Z,2.08
2018-11-11T00:14:14.281Z,3.17
2018-11-11T00:16:42.662Z,1.87
2018-11-11T00:19:11.145Z,1.92
2018-11-11T00:21:39.562Z,1.82
2018-11-11T00:24:08.040Z,2.58
2018-11-11T00:26:37.102Z,2.10
2018-11-11T00:29:05.874Z,1.87
2018-11-11T00:31:34.311Z,2.00
2018-11-11T00:34:02.699Z,2.75
2018-11-11T00:36:31.053Z,1.87
2018-11-11T00:38:59.527Z,1.47
2018-11-11T00:41:27.902Z,1.67
2018-11-11T00:43:56.242Z,1.72
2018-11-11T00:46:24.565Z,2.00
2018-11-11T00:48:53.256Z,1.60
2018-11-11T00:51:21.757Z,1.62
2018-11-11T00:53:50.067Z,1.67
2018-11-11T00:56:18.432Z,1.90
2018-11-11T00:58:46.796Z,1.60
2018-11-11T01:01:15.165Z,2.05
2018-11-11T01:03:43.481Z,1.17
2018-11-11T01:06:11.930Z,1.62
2018-11-11T01:08:40.280Z,1.85
2018-11-11T01:11:08.925Z,1.55
2018-11-11T01:13:37.272Z,1.98
2018-11-11T01:16:06.223Z,1.15
2018-11-11T01:18:34.551Z,1.55
2018-11-11T01:21:02.949Z,1.37
2018-11-11T01:23:31.283Z,1.50
2018-11-11T01:25:59.641Z,1.30
2018-11-11T01:28:27.971Z,1.32
2018-11-11T01:30:56.426Z,1.32
2018-11-11T01:33:24.943Z,1.17
2018-11-11T01:35:53.281Z,1.37
2018-11-11T01:38:21.666Z,1.25
2018-11-11T01:40:49.991Z,1.45
2018-11-11T01:43:18.393Z,1.12
2018-11-11T01:45:46.904Z,1.17
2018-11-11T01:48:15.294Z,1.25
2018-11-11T01:50:43.620Z,1.47
2018-11-11T01:53:12.153Z,1.45
2018-11-11T01:55:40.494Z,1.40
2018-11-11T01:58:08.852Z,1.42
2018-11-11T02:00:37.320Z,1.00
2018-11-11T02:03:06.122Z,1.15
2018-11-11T02:05:35.013Z,1.15
2018-11-11T02:08:03.429Z,1.75
2018-11-11T02:10:31.768Z,1.20
2018-11-11T02:13:00.271Z,1.42
2018-11-11T02:15:28.716Z,1.27
2018-11-11T02:17:57.260Z,1.35
2018-11-11T02:20:25.687Z,1.10
2018-11-11T02:22:55.096Z,1.10
2018-11-11T02:25:23.471Z,1.60
2018-11-11T02:27:51.829Z,1.30
2018-11-11T02:30:21.289Z,1.82
2018-11-11T02:32:50.176Z,1.10
2018-11-11T02:35:18.773Z,1.00
2018-11-11T02:37:47.125Z,1.42
2018-11-11T02:40:17.600Z,1.10
2018-11-11T02:42:46.961Z,1.10
2018-11-11T02:45:16.331Z,1.27
2018-11-11T02:47:44.688Z,1.07
2018-11-11T02:50:14.355Z,1.17
2018-11-11T02:52:43.268Z,0.82
2018-11-11T02:55:12.323Z,1.50
2018-11-11T02:57:41.126Z,1.05
2018-11-11T03:00:13.345Z,1.50
2018-11-11T03:02:42.697Z,1.35
2018-11-11T03:05:12.619Z,1.60
2018-11-11T03:07:41.036Z,1.32
2018-11-11T03:10:11.109Z,1.20
2018-11-11T03:12:40.522Z,0.80
2018-11-11T03:15:09.889Z,1.27
2018-11-11T03:17:38.283Z,0.88
2018-11-11T03:20:07.671Z,1.72
2018-11-11T03:22:36.053Z,1.10
2018-11-11T03:25:05.237Z,1.05
2018-11-11T03:27:33.737Z,2.12
2018-11-11T03:30:02.096Z,1.05
2018-11-11T03:32:30.561Z,1.77
2018-11-11T03:34:58.982Z,1.00
2018-11-11T03:37:27.527Z,0.78
2018-11-11T03:39:55.889Z,1.20
2018-11-11T03:42:24.227Z,1.62
2018-11-11T03:44:53.188Z,1.70
2018-11-11T03:47:21.541Z,1.00
2018-11-11T03:49:49.918Z,1.32
2018-11-11T03:52:18.302Z,1.15
2018-11-11T03:54:46.983Z,1.70
2018-11-11T03:57:15.369Z,0.90
2018-11-11T03:59:44.109Z,0.80
2018-11-11T04:02:13.089Z,1.20
2018-11-11T04:04:41.427Z,1.40
2018-11-11T04:07:10.362Z,0.93
2018-11-11T04:09:38.720Z,0.78
2018-11-11T04:12:07.194Z,0.90
2018-11-11T04:14:35.672Z,0.93
2018-11-11T04:17:04.848Z,0.98
2018-11-11T04:19:33.818Z,1.00
2018-11-11T04:22:06.570Z,1.25
2018-11-11T04:24:34.897Z,1.07
2018-11-11T04:27:03.210Z,0.82
2018-11-11T04:29:31.658Z,1.12
2018-11-11T04:32:00.692Z,1.15
2018-11-11T04:34:29.156Z,1.00
2018-11-11T04:36:57.651Z,2.70
2018-11-11T04:39:26.001Z,0.70
2018-11-11T04:41:54.326Z,1.57
2018-11-11T04:44:23.332Z,1.40
2018-11-11T04:46:52.320Z,0.95
2018-11-11T04:49:20.646Z,1.05
2018-11-11T04:51:48.979Z,0.90
2018-11-11T04:54:17.345Z,0.75
2018-11-11T04:56:45.746Z,0.90
2018-11-11T04:59:14.186Z,0.80
2018-11-11T05:01:42.600Z,1.00
2018-11-11T05:04:11.009Z,1.35
2018-11-11T05:06:39.397Z,0.80
2018-11-11T05:09:11.001Z,0.80
2018-11-11T05:11:40.859Z,0.95
2018-11-11T05:14:09.874Z,0.80
2018-11-11T05:16:38.359Z,1.07
2018-11-11T05:19:07.729Z,1.22
2018-11-11T05:21:36.142Z,0.98
2018-11-11T05:24:04.909Z,0.72
2018-11-11T05:26:33.525Z,0.85
2018-11-11T05:29:02.062Z,0.70
2018-11-11T05:31:30.495Z,0.82
2018-11-11T05:33:58.825Z,0.85
2018-11-11T05:36:27.330Z,1.00
2018-11-11T05:38:56.351Z,0.80
2018-11-11T05:41:25.609Z,1.37
2018-11-11T05:43:53.967Z,0.80
2018-11-11T05:46:23.034Z,0.80
2018-11-11T05:48:51.350Z,1.35
2018-11-11T05:51:19.742Z,0.70
2018-11-11T05:53:48.888Z,0.72
2018-11-11T05:56:17.252Z,0.80
2018-11-11T05:58:46.598Z,0.98
2018-11-11T06:01:14.989Z,1.00
2018-11-11T06:03:43.331Z,0.70
2018-11-11T06:06:11.696Z,0.62
2018-11-11T06:08:40.042Z,0.80
2018-11-11T06:11:08.414Z,1.37
2018-11-11T06:13:36.760Z,1.22
2018-11-11T06:16:05.734Z,1.10
2018-11-11T06:18:34.524Z,1.57
2018-11-11T06:21:02.865Z,0.80
2018-11-11T06:23:31.947Z,0.75
2018-11-11T06:26:00.929Z,2.33
2018-11-11T06:28:29.870Z,1.42
2018-11-11T06:30:58.226Z,0.82
2018-11-11T06:33:26.757Z,0.80
2018-11-11T06:35:55.240Z,1.67
2018-11-11T06:38:23.616Z,0.82
2018-11-11T06:40:51.928Z,1.35
2018-11-11T06:43:20.692Z,0.55
2018-11-11T06:45:49.032Z,0.62
2018-11-11T06:48:17.934Z,0.72
2018-11-11T06:50:46.276Z,0.42
2018-11-11T06:53:14.665Z,0.82
2018-11-11T06:55:43.016Z,0.53
2018-11-11T06:58:11.490Z,1.37
2018-11-11T07:00:39.908Z,0.40
2018-11-11T07:03:50.512Z,1.55
2018-11-11T07:06:19.137Z,1.17
2018-11-11T07:08:47.495Z,0.60
2018-11-11T07:11:16.340Z,0.60
2018-11-11T07:13:44.722Z,0.60
2018-11-11T07:16:13.644Z,2.40
2018-11-11T07:18:42.917Z,0.40
2018-11-11T07:21:11.292Z,0.72
2018-11-11T07:23:39.842Z,0.60
2018-11-11T07:26:08.401Z,0.57
2018-11-11T07:28:36.727Z,0.80
2018-11-11T07:31:05.958Z,0.60
2018-11-11T07:33:34.288Z,0.82
2018-11-11T07:36:02.821Z,0.55
2018-11-11T07:38:31.135Z,0.72
2018-11-11T07:40:59.590Z,0.53
2018-11-11T07:43:27.929Z,0.55
2018-11-11T07:45:56.307Z,1.00
2018-11-11T07:48:24.646Z,0.60
2018-11-11T07:50:53.131Z,0.57
2018-11-11T07:53:21.655Z,0.40
2018-11-11T07:55:50.075Z,0.40
2018-11-11T07:58:18.491Z,1.22
2018-11-11T08:00:46.838Z,0.60
2018-11-11T08:03:15.171Z,0.57
2018-11-11T08:05:43.743Z,0.57
2018-11-11T08:08:12.085Z,0.70
2018-11-11T08:10:51.876Z,0.72
2018-11-11T08:13:20.213Z,0.45
2018-11-11T08:15:49.931Z,0.98
2018-11-11T08:18:18.455Z,0.70
2018-11-11T08:20:47.021Z,0.70
2018-11-11T08:23:15.434Z,1.07
2018-11-11T08:25:43.887Z,1.10
2018-11-11T08:28:12.324Z,4.70
2018-11-11T08:30:41.125Z,4.42
2018-11-11T08:33:09.516Z,2.35
2018-11-11T08:35:37.840Z,3.72
2018-11-11T08:38:06.296Z,1.25
2018-11-11T08:40:34.649Z,4.15
2018-11-11T08:43:03.016Z,3.10
2018-11-11T08:45:31.438Z,2.92
2018-11-11T08:47:59.912Z,1.70
2018-11-11T08:50:28.342Z,2.50
2018-11-11T08:52:56.680Z,3.87
2018-11-11T08:55:25.102Z,2.25
2018-11-11T08:57:53.548Z,1.75
2018-11-11T09:00:21.962Z,5.10
2018-11-11T09:02:50.314Z,1.95
2018-11-11T09:05:19.092Z,1.77
2018-11-11T09:07:47.516Z,1.65
2018-11-11T09:10:15.974Z,1.52
2018-11-11T09:12:44.344Z,1.98
2018-11-11T09:15:14.414Z,2.75
2018-11-11T09:17:43.328Z,2.15
2018-11-11T09:20:12.608Z,1.72
2018-11-11T09:22:41.260Z,1.10
2018-11-11T09:25:10.592Z,1.82
2018-11-11T09:27:40.266Z,2.92
2018-11-11T09:30:10.519Z,2.22
2018-11-11T09:32:38.927Z,2.45
2018-11-11T09:35:07.881Z,3.60
2018-11-11T09:37:36.448Z,1.95
2018-11-11T09:40:05.136Z,1.65
2018-11-11T09:42:33.685Z,2.52
2018-11-11T09:45:02.584Z,3.58
2018-11-11T09:47:31.079Z,1.02
2018-11-11T09:49:59.703Z,1.82
2018-11-11T09:52:28.552Z,1.80
2018-11-11T09:54:56.926Z,3.15
2018-11-11T09:57:25.545Z,2.22
2018-11-11T09:59:53.965Z,2.25
2018-11-11T10:02:22.425Z,2.72
2018-11-11T10:05:28.261Z,4.47
2018-11-11T10:08:59.638Z,4.00
2018-11-11T10:11:33.878Z,2.15
2018-11-11T10:14:08.275Z,5.20
2018-11-11T10:16:50.122Z,3.67
2018-11-11T10:19:22.771Z,6.00
2018-11-11T10:21:55.337Z,2.08
2018-11-11T10:24:29.137Z,3.67
2018-11-11T10:27:05.746Z,5.00
2018-11-11T10:29:41.522Z,2.47
2018-11-11T10:32:40.494Z,4.08
2018-11-11T10:35:18.732Z,5.37
2018-11-11T10:37:50.740Z,3.55
2018-11-11T10:40:26.672Z,4.10
2018-11-11T10:43:59.270Z,3.95
2018-11-11T10:46:33.419Z,7.78
2018-11-11T10:49:03.712Z,5.12
2018-11-11T10:51:32.410Z,6.95
2018-11-11T10:54:00.874Z,2.90
2018-11-11T10:56:29.455Z,5.90
2018-11-11T10:58:57.890Z,3.20
2018-11-11T11:01:31.014Z,5.45
2018-11-11T11:03:59.604Z,5.37
2018-11-11T11:06:33.282Z,4.97
2018-11-11T11:09:08.268Z,6.40
2018-11-11T11:11:36.760Z,7.75
2018-11-11T11:14:05.525Z,9.53
2018-11-11T11:16:33.920Z,8.25
2018-11-11T11:19:02.988Z,10.32
2018-11-11T11:21:31.322Z,5.80
2018-11-11T11:23:59.683Z,8.75
2018-11-11T11:26:28.098Z,6.17
2018-11-11T11:28:56.464Z,5.08
2018-11-11T11:31:24.988Z,10.00
2018-11-11T11:33:53.473Z,6.70
2018-11-11T11:36:22.192Z,8.53
2018-11-11T11:38:50.870Z,9.90
2018-11-11T11:41:19.372Z,8.73
2018-11-11T11:43:48.139Z,6.30
2018-11-11T11:46:16.737Z,4.53
2018-11-11T11:48:45.106Z,10.05
2018-11-11T11:51:13.604Z,7.30
2018-11-11T11:53:42.086Z,8.65
2018-11-11T11:56:10.673Z,4.08
2018-11-11T11:58:39.006Z,6.90
2018-11-11T12:01:07.802Z,11.10
2018-11-11T12:03:36.298Z,7.78
2018-11-11T12:06:04.867Z,8.13
2018-11-11T12:08:33.493Z,10.32
2018-11-11T12:11:02.469Z,9.60
2018-11-11T12:13:30.818Z,15.23
2018-11-11T12:15:59.203Z,16.90
2018-11-11T12:18:27.631Z,10.15
2018-11-11T12:20:55.976Z,10.43
2018-11-11T12:23:26.092Z,8.53
2018-11-11T12:25:54.467Z,8.75
2018-11-11T12:28:22.883Z,14.05
2018-11-11T12:30:51.430Z,9.70
2018-11-11T12:33:19.738Z,12.28
2018-11-11T12:35:48.186Z,19.75
2018-11-11T12:38:16.727Z,27.77
2018-11-11T12:40:45.059Z,20.72
2018-11-11T12:43:13.431Z,20.88
2018-11-11T12:45:42.969Z,24.47
2018-11-11T12:48:11.369Z,31.17
2018-11-11T12:50:39.888Z,27.82
2018-11-11T12:53:08.309Z,23.85
2018-11-11T12:55:36.643Z,28.55
2018-11-11T12:58:05.860Z,28.65
2018-11-11T13:00:34.727Z,22.98
2018-11-11T13:03:03.538Z,15.43
2018-11-11T13:05:31.913Z,26.80
2018-11-11T13:08:00.396Z,21.82
2018-11-11T13:10:28.818Z,18.40
2018-11-11T13:12:57.234Z,24.87
2018-11-11T13:15:25.561Z,25.55
2018-11-11T13:17:54.013Z,17.12
2018-11-11T13:20:22.470Z,18.77
2018-11-11T13:22:51.698Z,22.13
2018-11-11T13:25:20.031Z,22.22
2018-11-11T13:27:48.378Z,18.23
2018-11-11T13:30:16.780Z,20.68
2018-11-11T13:32:45.140Z,16.70
2018-11-11T13:35:15.219Z,18.67
2018-11-11T13:37:43.758Z,23.47
2018-11-11T13:40:14.662Z,19.92
2018-11-11T13:42:43.288Z,23.22
2018-11-11T13:45:17.340Z,25.72
2018-11-11T13:47:46.806Z,24.77
2018-11-11T13:50:16.747Z,30.27
2018-11-11T13:52:45.711Z,23.57
2018-11-11T13:55:14.847Z,30.48
2018-11-11T13:57:44.728Z,27.55
2018-11-11T14:00:20.489Z,35.43
2018-11-11T14:02:48.895Z,34.40
2018-11-11T14:05:17.291Z,30.82
2018-11-11T14:07:47.279Z,32.20
2018-11-11T14:10:16.414Z,27.22
2018-11-11T14:12:45.297Z,22.75
2018-11-11T14:15:20.551Z,25.43
2018-11-11T14:17:49.157Z,19.02
2018-11-11T14:20:19.001Z,28.87
2018-11-11T14:22:48.919Z,28.25
2018-11-11T14:25:20.357Z,25.68
2018-11-11T14:27:49.157Z,23.30
2018-11-11T14:30:20.047Z,22.35
2018-11-11T14:32:49.324Z,22.62
2018-11-11T14:35:17.733Z,21.45
2018-11-11T14:37:46.613Z,27.32
2018-11-11T14:40:18.322Z,26.42
2018-11-11T14:42:47.085Z,20.43
2018-11-11T14:45:17.174Z,24.18
2018-11-11T14:47:46.645Z,20.10
2018-11-11T14:50:15.926Z,16.60
2018-11-11T14:52:44.907Z,18.12
2018-11-11T14:55:15.326Z,20.52
2018-11-11T14:57:43.801Z,27.60
2018-11-11T15:00:15.118Z,22.32
2018-11-11T15:02:44.042Z,19.98
2018-11-11T15:05:13.506Z,18.57
2018-11-11T15:07:43.595Z,19.52
2018-11-11T15:10:13.245Z,22.87
2018-11-11T15:12:42.075Z,15.30
2018-11-11T15:15:17.876Z,21.65
2018-11-11T15:17:47.169Z,24.35
2018-11-11T15:20:16.597Z,22.70
2018-11-11T15:22:46.027Z,19.55
2018-11-11T15:25:15.702Z,22.65
2018-11-11T15:27:45.307Z,13.88
2018-11-11T15:30:16.351Z,13.45
2018-11-11T15:32:45.689Z,15.28
2018-11-11T15:35:14.090Z,15.85
2018-11-11T15:37:42.535Z,12.40
2018-11-11T15:40:15.038Z,16.65
2018-11-11T15:42:43.537Z,14.70
2018-11-11T15:45:14.516Z,16.20
2018-11-11T15:47:43.076Z,14.33
2018-11-11T15:50:22.566Z,13.08
2018-11-11T15:52:52.843Z,14.80
2018-11-11T15:55:22.469Z,9.75
2018-11-11T15:57:50.821Z,15.80
2018-11-11T16:00:23.748Z,12.37
2018-11-11T16:02:52.243Z,14.70
2018-11-11T16:05:20.995Z,11.55
2018-11-11T16:07:50.591Z,7.00
2018-11-11T16:10:20.539Z,9.68
2018-11-11T16:12:49.568Z,11.00
2018-11-11T16:15:20.360Z,10.13
2018-11-11T16:17:50.356Z,12.35
2018-11-11T16:20:20.317Z,7.90
2018-11-11T16:22:49.867Z,14.05
2018-11-11T16:25:18.547Z,9.08
2018-11-11T16:27:48.089Z,8.48
2018-11-11T16:30:18.408Z,6.95
2018-11-11T16:32:49.026Z,9.98
2018-11-11T16:35:18.595Z,7.70
2018-11-11T16:37:47.474Z,12.35
2018-11-11T16:40:18.307Z,6.08
2018-11-11T16:42:47.324Z,7.35
2018-11-11T16:45:17.489Z,7.75
2018-11-11T16:47:46.150Z,6.60
2018-11-11T16:50:16.667Z,6.92
2018-11-11T16:52:46.008Z,6.53
2018-11-11T16:55:15.724Z,4.47
2018-11-11T16:57:45.089Z,8.85
2018-11-11T17:00:22.735Z,9.45
2018-11-11T17:02:51.769Z,12.28
2018-11-11T17:05:21.520Z,13.10
2018-11-11T17:07:50.302Z,18.85
2018-11-11T17:10:20.183Z,18.90
2018-11-11T17:12:49.614Z,19.73
2018-11-11T17:15:19.373Z,23.10
2018-11-11T17:17:47.785Z,26.25
2018-11-11T17:20:18.516Z,27.25
2018-11-11T17:22:47.937Z,32.70
2018-11-11T17:25:17.980Z,28.42
2018-11-11T17:27:47.036Z,26.57
2018-11-11T17:30:18.609Z,31.15
2018-11-11T17:32:48.232Z,32.53
2018-11-11T17:35:16.580Z,33.18
2018-11-11T17:37:46.049Z,41.28
2018-11-11T17:40:18.127Z,38.55
2018-11-11T17:42:47.664Z,38.28
2018-11-11T17:45:16.713Z,42.27
2018-11-11T17:47:45.869Z,39.33
2018-11-11T17:50:32.870Z,40.23
2018-11-11T17:53:03.384Z,38.05
2018-11-11T17:55:32.040Z,45.10
2018-11-11T17:58:00.334Z,38.88
2018-11-11T18:00:29.729Z,40.70
2018-11-11T18:02:59.167Z,40.03
2018-11-11T18:05:28.513Z,41.00
2018-11-11T18:07:57.244Z,34.20
2018-11-11T18:10:26.184Z,35.98
2018-11-11T18:12:54.644Z,35.10
2018-11-11T18:15:28.556Z,34.50
2018-11-11T18:17:57.782Z,28.92
2018-11-11T18:20:27.946Z,33.23
2018-11-11T18:22:57.198Z,29.02
2018-11-11T18:25:25.593Z,27.85
2018-11-11T18:27:54.065Z,29.65
2018-11-11T18:30:25.311Z,21.40
2018-11-11T18:32:53.792Z,23.92
2018-11-11T18:35:23.420Z,25.30
2018-11-11T18:37:52.085Z,23.42
2018-11-11T18:40:21.930Z,22.73
2018-11-11T18:42:50.377Z,22.05
2018-11-11T18:45:20.748Z,28.52
2018-11-11T18:47:49.878Z,27.00
2018-11-11T18:50:20.608Z,25.23
2018-11-11T18:52:48.956Z,23.15
2018-11-11T18:55:17.503Z,22.45
2018-11-11T18:57:46.268Z,16.77
2018-11-11T19:00:21.757Z,13.03
2018-11-11T19:02:51.749Z,12.25
2018-11-11T19:05:20.829Z,9.13
2018-11-11T19:07:49.649Z,12.75
2018-11-11T19:10:19.487Z,7.50
2018-11-11T19:12:49.255Z,8.38
2018-11-11T19:15:18.694Z,7.25
2018-11-11T19:17:48.361Z,6.20
2018-11-11T19:20:18.061Z,7.92
2018-11-11T19:22:46.457Z,7.87
2018-11-11T19:25:17.486Z,5.92
2018-11-11T19:27:48.029Z,6.87
2018-11-11T19:30:18.150Z,5.53
2018-11-11T19:32:48.046Z,6.22
2018-11-11T19:35:16.805Z,5.05
2018-11-11T19:37:46.868Z,6.25
2018-11-11T19:40:24.989Z,7.92
2018-11-11T19:42:55.387Z,6.33
2018-11-11T19:45:25.711Z,5.10
2018-11-11T19:47:54.194Z,4.97
2018-11-11T19:50:23.933Z,4.58
2018-11-11T19:52:53.164Z,4.28
2018-11-11T19:55:22.608Z,5.70
2018-11-11T19:57:51.119Z,3.87
2018-11-11T20:00:22.143Z,5.12
2018-11-11T20:02:52.152Z,4.65
2018-11-11T20:05:21.331Z,3.92
2018-11-11T20:07:51.651Z,4.08
2018-11-11T20:10:21.551Z,4.92
2018-11-11T20:12:50.218Z,3.92
2018-11-11T20:15:21.239Z,3.20
2018-11-11T20:17:50.228Z,3.77
2018-11-11T20:20:20.174Z,3.83
2018-11-11T20:22:51.393Z,3.50
2018-11-11T20:25:21.263Z,3.08
2018-11-11T20:27:49.792Z,2.75
2018-11-11T20:30:20.893Z,2.70
2018-11-11T20:32:50.266Z,3.12
2018-11-11T20:35:20.044Z,3.00
2018-11-11T20:37:49.403Z,3.10
2018-11-11T20:40:19.450Z,2.67
2018-11-11T20:42:48.645Z,2.62
2018-11-11T20:45:18.902Z,2.95
2018-11-11T20:47:48.133Z,3.67
2018-11-11T20:50:18.258Z,3.10
2018-11-11T20:52:48.473Z,2.72
2018-11-11T20:55:17.799Z,2.75
2018-11-11T20:57:46.641Z,3.90
2018-11-11T21:00:24.286Z,3.08
2018-11-11T21:02:52.693Z,3.00
2018-11-11T21:05:22.755Z,3.40
2018-11-11T21:07:51.300Z,2.50
2018-11-11T21:10:24.862Z,2.37
2018-11-11T21:12:53.410Z,2.35
2018-11-11T21:15:23.649Z,2.58
2018-11-11T21:17:52.084Z,2.47
2018-11-11T21:20:23.337Z,2.92
2018-11-11T21:22:51.753Z,2.85
2018-11-11T21:25:20.377Z,3.45
2018-11-11T21:27:50.027Z,2.92
2018-11-11T21:30:20.539Z,2.72
2018-11-11T21:32:49.423Z,2.80
2018-11-11T21:35:17.898Z,2.52
2018-11-11T21:37:47.647Z,3.17
2018-11-11T21:40:17.534Z,3.25
2018-11-11T21:42:47.963Z,3.50
2018-11-11T21:45:17.696Z,2.62
2018-11-11T21:47:46.801Z,2.60
2018-11-11T21:50:16.717Z,2.58
2018-11-11T21:52:51.863Z,2.52
2018-11-11T21:55:20.899Z,3.58
2018-11-11T21:57:50.615Z,2.98
2018-11-11T22:00:19.220Z,3.17
2018-11-11T22:02:47.625Z,2.85
2018-11-11T22:05:16.202Z,2.55
2018-11-11T22:07:44.970Z,2.30
2018-11-11T22:10:14.460Z,2.72
2018-11-11T22:12:43.413Z,2.98
2018-11-11T22:15:12.745Z,2.77
2018-11-11T22:17:41.713Z,2.58
2018-11-11T22:20:10.856Z,4.95
2018-11-11T22:22:40.265Z,2.67
2018-11-11T22:25:08.696Z,2.58
2018-11-11T22:27:37.317Z,2.35
2018-11-11T22:30:09.803Z,2.37
2018-11-11T22:32:38.333Z,2.20
2018-11-11T22:35:07.750Z,2.47
2018-11-11T22:37:36.188Z,2.08
2018-11-11T22:40:06.415Z,3.12
2018-11-11T22:42:35.160Z,2.27
2018-11-11T22:45:03.567Z,2.47
2018-11-11T22:47:32.043Z,2.45
2018-11-11T22:50:00.477Z,1.95
2018-11-11T22:52:28.811Z,2.40
2018-11-11T22:54:57.740Z,2.62
2018-11-11T22:57:26.226Z,2.00
2018-11-11T22:59:54.563Z,2.05
2018-11-11T23:02:22.934Z,2.58
2018-11-11T23:04:51.322Z,2.45
2018-11-11T23:07:19.672Z,2.22
2018-11-11T23:09:48.008Z,2.52
2018-11-11T23:12:16.372Z,2.27
2018-11-11T23:14:44.696Z,2.22
2018-11-11T23:17:13.150Z,2.72
2018-11-11T23:19:41.582Z,2.27
2018-11-11T23:22:10.038Z,3.37
2018-11-11T23:24:38.366Z,1.85
2018-11-11T23:27:06.725Z,2.30
2018-11-11T23:29:35.058Z,2.27
2018-11-11T23:32:03.669Z,2.20
2018-11-11T23:34:32.001Z,2.27
2018-11-11T23:37:00.418Z,2.27
2018-11-11T23:39:28.700Z,1.98
2018-11-11T23:41:57.038Z,2.42
2018-11-11T23:44:25.382Z,2.40
2018-11-11T23:46:53.741Z,2.20
2018-11-11T23:49:22.103Z,2.35
2018-11-11T23:51:50.435Z,2.12
2018-11-11T23:54:18.773Z,2.10
2018-11-11T23:56:47.157Z,2.20
2018-11-11T23:59:15.468Z,2.20
